メインページ
METAR-TAF:

METAR-TAF

空港 :

High Level, アルバータ州, カナダ

緯度: 58-37N, 経度: 117-10W, 海抜: 338m

現時点の気象観測

当レポートは33分前の20:00(UTC)に作成
北西の風 6kt
気温 -15°C
湿度 78%
気圧 1011 hPa
視程: 24.1km
高度500ftの雲はほとんどない
高度12000ftの雲はほとんどない
高度25000ftの雲は散在している

METAR: CYOJ 152000Z 32006KT 15SM FEW005 FEW120 SCT250 M15/M18 A2984 RMK SF2AC1CI2 AC TR SLP139

時間: 13:33 (20:33 UTC)

予報

当レポートは1時間55分前の18:38(UTC)に作成
予報は15日の 19時(UTC)から 16日の 07時(UTC)まで有効
北西の風 10kt
視程: 10km
高度3000ftの雲は散在している
高度12000ftの雲は散在している
16日の 0000時(UTC)から
西/北西の風 6kt
視程: 10km
晴天
16日の 01時(UTC)から 16日の 03時(UTC)まで徐々に
変向風 3kt

TAF: CYOJ 151838Z 1519/1607 32010KT P6SM SCT030 SCT120 FM160000 29006KT P6SM SKC BECMG 1601/1603 VRB03KT RMK NXT FCST BY 160100Z

4,000以上の空港の気象観測と天気予報(METAR報とTAF報)

利用可能な観測所は地図上に黄色い丸と赤い丸で示す。

丸の上にカーソルを重ねると観測所名を参照できる。

次にクリックすると気象観測と天気予報を参照できる。

マップの切り替え:黒色「×」印の緑ボタンをクリックして拡大、「-」印の緑ボタンをクリックして縮小、緑色の三角印をクリックして隣りの地図に切り替え


METAR-TAF: